Time;durP1;ratioP1;P1;durP2;ratioP2;P2;SDS_P1;SDS_P2;PMS_P1;PMS_P2;Temp;Humidity;BMP_temperature;BMP_pressure;BME280_temperature;BME280_humidity;BME280_pressure;Samples;Min_cycle;Max_cycle;Signal;HPM_P1;HPM_P2
2023/03/18 00:01:15;;;;;;;;;;;;;;;3.03;75.76;92645.22;4976564;28;20013;-78
2023/03/18 00:03:40;;;;;;;;;;;;;;;3.04;75.56;92652.75;4974428;28;20377;-76
2023/03/18 00:06:07;;;;;;;;;;;;;;;3.03;76.08;92651.16;4974121;28;19984;-78
2023/03/18 00:08:33;;;;;;;;;;;;;;;3.03;75.99;92646.00;4968490;28;19915;-78
2023/03/18 00:10:59;;;;;;;;;;;;;;;3.03;76.29;92643.41;4962286;28;19910;-78
2023/03/18 00:13:26;;;;;;;;;;;;;;;3.02;76.01;92641.84;4978389;28;19918;-78
2023/03/18 00:15:51;;;;;;;;;;;;;;;3.04;76.11;92641.59;4971639;28;19911;-78
2023/03/18 00:18:17;;;;;;;;;;;;;;;3.02;76.01;92647.03;4962898;28;19989;-78
2023/03/18 00:20:44;;;;;;;;;;;;;;;3.01;76.24;92642.88;4970058;28;19926;-78
2023/03/18 00:23:10;;;;;;;;;;;;;;;3.00;76.07;92641.31;4971511;28;19978;-78
2023/03/18 00:25:36;;;;;;;;;;;;;;;3.00;76.00;92641.31;4979450;28;19910;-78
2023/03/18 00:28:03;;;;;;;;;;;;;;;2.99;76.35;92639.72;4978217;28;20361;-78
2023/03/18 00:30:29;;;;;;;;;;;;;;;3.00;76.38;92637.94;4979692;28;19910;-78
2023/03/18 00:32:56;;;;;;;;;;;;;;;3.00;76.68;92630.97;4989500;28;20067;-78
2023/03/18 00:35:22;;;;;;;;;;;;;;;3.01;77.03;92636.91;4959739;28;19910;-78
2023/03/18 00:37:48;;;;;;;;;;;;;;;3.01;76.95;92632.50;4967414;28;19973;-78
2023/03/18 00:40:19;;;;;;;;;;;;;;;3.02;77.30;92630.72;4979234;28;20368;-78
2023/03/18 00:42:49;;;;;;;;;;;;;;;3.01;76.81;92632.50;4971968;28;19918;-78
2023/03/18 00:45:16;;;;;;;;;;;;;;;3.02;76.67;92634.09;4978781;28;19914;-78
2023/03/18 00:47:42;;;;;;;;;;;;;;;3.07;76.71;92629.00;4978757;28;19919;-78
2023/03/18 00:50:08;;;;;;;;;;;;;;;3.07;77.14;92625.63;4978341;28;19922;-78
2023/03/18 00:52:34;;;;;;;;;;;;;;;3.09;77.47;92623.59;4975994;28;19914;-78
2023/03/18 00:55:00;;;;;;;;;;;;;;;3.09;77.84;92626.97;4968700;28;19925;-78
2023/03/18 00:57:28;;;;;;;;;;;;;;;3.10;78.04;92623.34;4993449;28;19918;-78
2023/03/18 00:59:54;;;;;;;;;;;;;;;3.11;77.71;92629.31;4974287;28;19914;-77
2023/03/18 01:02:20;;;;;;;;;;;;;;;3.10;77.52;92625.94;4965319;28;19918;-77
2023/03/18 01:04:45;;;;;;;;;;;;;;;3.10;77.13;92625.94;4971660;28;20372;-76
2023/03/18 01:07:12;;;;;;;;;;;;;;;3.11;77.13;92629.31;4972543;28;20265;-76
2023/03/18 01:09:39;;;;;;;;;;;;;;;3.11;77.30;92624.91;4977516;28;19922;-77
2023/03/18 01:12:06;;;;;;;;;;;;;;;3.11;77.08;92627.50;4976861;28;19913;-77
2023/03/18 01:14:31;;;;;;;;;;;;;;;3.11;77.35;92622.34;4977633;28;19914;-77
2023/03/18 01:16:57;;;;;;;;;;;;;;;3.10;77.34;92618.16;4958446;28;19921;-78
2023/03/18 01:19:25;;;;;;;;;;;;;;;3.11;77.44;92618.97;4965639;28;19977;-78
2023/03/18 01:21:50;;;;;;;;;;;;;;;3.09;77.76;92616.59;4957980;28;20300;-78
2023/03/18 01:24:16;;;;;;;;;;;;;;;3.09;77.70;92608.06;4968997;28;20392;-77
2023/03/18 01:26:43;;;;;;;;;;;;;;;3.07;77.33;92610.88;4972809;28;19920;-77
2023/03/18 01:29:09;;;;;;;;;;;;;;;3.05;78.18;92612.94;4971826;28;20372;-78
2023/03/18 01:31:35;;;;;;;;;;;;;;;3.05;77.57;92605.16;4973977;28;19969;-77
2023/03/18 01:34:05;;;;;;;;;;;;;;;3.04;77.71;92610.56;4968692;28;19965;-78
2023/03/18 01:36:41;;;;;;;;;;;;;;;3.03;78.06;92599.44;4969495;28;19914;-78
2023/03/18 01:39:09;;;;;;;;;;;;;;;3.02;77.86;92589.34;4962127;28;19917;-78
2023/03/18 01:41:35;;;;;;;;;;;;;;;2.99;78.15;92582.81;4972225;28;19924;-77
2023/03/18 01:44:03;;;;;;;;;;;;;;;2.99;78.60;92589.81;4972124;28;19941;-77
2023/03/18 01:46:36;;;;;;;;;;;;;;;2.98;78.84;92585.66;4971543;28;19921;-77
2023/03/18 01:49:06;;;;;;;;;;;;;;;2.96;79.60;92580.72;4972567;28;20336;-78
2023/03/18 01:51:32;;;;;;;;;;;;;;;2.97;79.14;92586.69;4972199;28;20296;-77
2023/03/18 01:54:01;;;;;;;;;;;;;;;2.96;78.87;92582.53;4972094;28;19948;-78
2023/03/18 01:56:26;;;;;;;;;;;;;;;2.98;78.63;92575.31;4964144;28;19918;-78
2023/03/18 01:58:54;;;;;;;;;;;;;;;2.99;78.68;92580.25;4971727;28;19981;-77
2023/03/18 02:01:28;;;;;;;;;;;;;;;3.01;78.57;92569.66;4971670;28;19918;-77
2023/03/18 02:03:55;;;;;;;;;;;;;;;3.01;78.50;92574.84;4971791;28;19918;-78
2023/03/18 02:06:22;;;;;;;;;;;;;;;3.01;78.47;92575.63;4971009;28;19916;-77
2023/03/18 02:08:55;;;;;;;;;;;;;;;3.01;79.02;92575.63;4972030;28;19945;-77
2023/03/18 02:11:22;;;;;;;;;;;;;;;3.01;78.86;92574.84;4971900;28;19957;-78
2023/03/18 02:13:49;;;;;;;;;;;;;;;3.00;78.86;92568.13;4971951;28;20094;-77
2023/03/18 02:16:19;;;;;;;;;;;;;;;2.98;78.98;92564.97;4971047;28;20070;-77
2023/03/18 02:19:08;;;;;;;;;;;;;;;2.99;78.84;92569.13;4953599;28;19936;-77
2023/03/18 02:21:49;;;;;;;;;;;;;;;2.98;79.39;92560.59;4961057;28;19925;-78
2023/03/18 02:24:34;;;;;;;;;;;;;;;2.98;79.26;92560.59;4952480;29;20436;-77
2023/03/18 02:27:11;;;;;;;;;;;;;;;2.96;79.62;92552.28;4969496;28;19914;-77
2023/03/18 02:29:41;;;;;;;;;;;;;;;2.99;79.81;92551.78;4971654;28;19914;-77
2023/03/18 02:32:12;;;;;;;;;;;;;;;2.99;79.40;92546.63;4972091;28;19914;-78
2023/03/18 02:34:39;;;;;;;;;;;;;;;3.01;79.84;92544.59;4972916;28;19914;-77
2023/03/18 02:37:06;;;;;;;;;;;;;;;3.03;80.23;92537.38;4966347;28;20291;-77
2023/03/18 02:39:34;;;;;;;;;;;;;;;3.03;80.20;92536.59;4971360;28;19921;-77
2023/03/18 02:42:00;;;;;;;;;;;;;;;3.03;80.78;92537.38;4971338;28;20553;-77
2023/03/18 02:44:26;;;;;;;;;;;;;;;3.04;80.49;92544.13;4971477;28;19914;-77
2023/03/18 02:47:19;;;;;;;;;;;;;;;3.06;80.10;92541.28;4960820;28;19936;-78
2023/03/18 02:49:45;;;;;;;;;;;;;;;3.05;79.72;92535.34;4955619;28;19974;-77
2023/03/18 02:52:12;;;;;;;;;;;;;;;3.08;79.75;92531.47;4955508;28;19965;-78
2023/03/18 02:54:38;;;;;;;;;;;;;;;3.10;80.60;92529.44;4970942;28;19933;-78
2023/03/18 02:57:03;;;;;;;;;;;;;;;3.10;80.67;92525.03;4966478;28;19977;-77
2023/03/18 02:59:31;;;;;;;;;;;;;;;3.08;79.81;92521.91;4953063;28;19950;-77
2023/03/18 03:01:57;;;;;;;;;;;;;;;3.05;80.13;92526.78;4952470;28;19985;-78
2023/03/18 03:04:23;;;;;;;;;;;;;;;3.03;80.02;92521.84;4975321;28;19922;-78
2023/03/18 03:06:50;;;;;;;;;;;;;;;3.01;79.99;92518.72;4971606;28;19910;-78
2023/03/18 03:09:20;;;;;;;;;;;;;;;3.01;79.59;92523.91;4968323;28;19960;-77
2023/03/18 03:11:46;;;;;;;;;;;;;;;3.01;79.59;92518.72;4975150;28;19994;-77
2023/03/18 03:14:16;;;;;;;;;;;;;;;3.00;79.48;92524.94;4972025;28;20017;-77
2023/03/18 03:16:43;;;;;;;;;;;;;;;2.99;79.66;92520.75;4959032;28;19973;-78
2023/03/18 03:19:09;;;;;;;;;;;;;;;2.97;79.60;92522.81;4971150;28;19949;-78
2023/03/18 03:21:35;;;;;;;;;;;;;;;2.98;79.76;92523.59;4976513;28;19957;-78
2023/03/18 03:24:02;;;;;;;;;;;;;;;2.95;79.61;92514.53;4980768;28;20257;-78
2023/03/18 03:26:28;;;;;;;;;;;;;;;2.92;79.87;92510.59;4978627;28;20054;-77
2023/03/18 03:28:54;;;;;;;;;;;;;;;2.92;79.77;92514.97;4974450;28;19914;-77
2023/03/18 03:31:20;;;;;;;;;;;;;;;2.90;80.55;92512.66;4971652;28;19918;-78
2023/03/18 03:33:46;;;;;;;;;;;;;;;2.89;80.70;92510.28;4956672;29;20049;-77
2023/03/18 03:36:14;;;;;;;;;;;;;;;2.88;80.48;92519.06;4958106;28;19918;-77
2023/03/18 03:38:40;;;;;;;;;;;;;;;2.88;80.07;92513.88;4975903;28;19921;-78
2023/03/18 03:41:09;;;;;;;;;;;;;;;2.90;79.75;92511.84;4974059;28;19922;-78
2023/03/18 03:43:35;;;;;;;;;;;;;;;2.90;79.44;92501.50;4975361;28;19914;-77
2023/03/18 03:46:02;;;;;;;;;;;;;;;2.92;79.49;92509.81;4970801;28;19918;-77
2023/03/18 03:48:28;;;;;;;;;;;;;;;2.92;79.75;92510.59;4971305;28;20709;-77
2023/03/18 03:50:55;;;;;;;;;;;;;;;2.93;79.73;92501.03;4982727;28;20085;-78
2023/03/18 03:53:21;;;;;;;;;;;;;;;2.95;79.39;92500.78;4973513;28;19925;-78
2023/03/18 03:55:46;;;;;;;;;;;;;;;2.99;79.58;92500.06;4973448;28;19926;-77
2023/03/18 03:58:12;;;;;;;;;;;;;;;3.00;79.73;92499.06;4974232;28;19918;-77
2023/03/18 04:00:39;;;;;;;;;;;;;;;3.00;79.85;92491.31;4968685;28;20381;-77
2023/03/18 04:03:04;;;;;;;;;;;;;;;3.02;78.95;92489.25;4969268;28;19914;-78
2023/03/18 04:05:30;;;;;;;;;;;;;;;3.03;79.69;92485.66;4978404;28;20368;-77
2023/03/18 04:08:00;;;;;;;;;;;;;;;3.07;80.21;92491.91;4974119;28;19913;-77
2023/03/18 04:10:37;;;;;;;;;;;;;;;3.06;80.43;92487.78;4973706;28;19921;-77
2023/03/18 04:13:06;;;;;;;;;;;;;;;3.07;80.51;92491.13;4970799;28;19915;-77
2023/03/18 04:15:31;;;;;;;;;;;;;;;3.07;80.09;92504.06;4972901;28;19937;-77
2023/03/18 04:18:05;;;;;;;;;;;;;;;3.07;80.05;92494.50;4974160;28;19918;-77
2023/03/18 04:20:33;;;;;;;;;;;;;;;3.07;79.72;92491.91;4983978;28;20371;-77
2023/03/18 04:22:58;;;;;;;;;;;;;;;3.09;79.73;92479.53;4973646;28;20320;-77
2023/03/18 04:25:24;;;;;;;;;;;;;;;3.09;79.95;92491.69;4973344;28;19960;-77
2023/03/18 04:27:51;;;;;;;;;;;;;;;3.08;80.42;92501.22;4975053;28;20010;-77
2023/03/18 04:30:19;;;;;;;;;;;;;;;3.07;80.47;92491.91;4973174;28;20008;-77
2023/03/18 04:32:56;;;;;;;;;;;;;;;3.07;80.67;92496.31;4972136;28;19918;-77
2023/03/18 04:35:22;;;;;;;;;;;;;;;3.06;80.37;92494.72;4973744;28;20284;-77
2023/03/18 04:37:49;;;;;;;;;;;;;;;3.04;80.57;92494.19;4973738;28;20343;-77
2023/03/18 04:40:14;;;;;;;;;;;;;;;3.00;80.70;92501.66;4973142;28;19918;-77
2023/03/18 04:42:40;;;;;;;;;;;;;;;3.00;80.49;92490.53;4974669;28;20016;-78
2023/03/18 04:45:09;;;;;;;;;;;;;;;2.97;80.42;92494.34;4977567;28;20292;-78
2023/03/18 04:47:37;;;;;;;;;;;;;;;2.98;80.20;92482.22;4978803;28;19918;-78
2023/03/18 04:50:03;;;;;;;;;;;;;;;2.96;80.59;92485.03;4975022;28;19918;-77
2023/03/18 04:52:29;;;;;;;;;;;;;;;2.95;80.13;92483.50;4971993;28;19942;-77
2023/03/18 04:54:55;;;;;;;;;;;;;;;2.94;80.06;92481.91;4973025;28;19922;-77
2023/03/18 04:57:21;;;;;;;;;;;;;;;2.92;80.42;92484.72;4973831;28;19941;-78
2023/03/18 04:59:51;;;;;;;;;;;;;;;2.90;80.59;92486.78;4972725;28;19952;-78
2023/03/18 05:02:18;;;;;;;;;;;;;;;2.91;80.59;92477.22;4972772;28;20008;-77
2023/03/18 05:04:44;;;;;;;;;;;;;;;2.90;80.28;92478.22;4971731;28;19909;-78
2023/03/18 05:07:14;;;;;;;;;;;;;;;2.87;80.27;92471.75;4974570;28;20012;-77
2023/03/18 05:09:43;;;;;;;;;;;;;;;2.86;80.50;92477.13;4972149;28;19965;-76
2023/03/18 05:12:12;;;;;;;;;;;;;;;2.83;80.63;92470.66;4954814;28;19989;-77
2023/03/18 05:14:38;;;;;;;;;;;;;;;2.82;80.07;92478.66;4977852;28;19948;-77
2023/03/18 05:17:03;;;;;;;;;;;;;;;2.81;80.39;92477.84;4985838;28;19910;-77
2023/03/18 05:19:32;;;;;;;;;;;;;;;2.79;79.94;92468.78;4953965;29;19918;-77
2023/03/18 05:22:09;;;;;;;;;;;;;;;2.75;80.68;92475.44;4953674;29;19930;-76
2023/03/18 05:24:34;;;;;;;;;;;;;;;2.75;80.47;92476.25;4958831;28;19914;-77
2023/03/18 05:27:01;;;;;;;;;;;;;;;2.74;80.61;92471.31;4971554;28;20388;-77
2023/03/18 05:29:33;;;;;;;;;;;;;;;2.71;80.93;92473.34;4956005;28;19918;-77
2023/03/18 05:32:11;;;;;;;;;;;;;;;2.71;80.65;92472.56;4972449;28;20364;-77
2023/03/18 05:34:38;;;;;;;;;;;;;;;2.69;81.07;92480.53;4972047;28;19922;-77
2023/03/18 05:37:05;;;;;;;;;;;;;;;2.71;81.01;92488.84;4972674;28;19953;-77
2023/03/18 05:39:32;;;;;;;;;;;;;;;2.71;80.95;92483.69;4968014;28;19969;-77
2023/03/18 05:41:58;;;;;;;;;;;;;;;2.69;80.62;92472.78;4936914;29;20017;-77
2023/03/18 05:44:27;;;;;;;;;;;;;;;2.70;80.59;92471.78;4965589;28;19929;-77
2023/03/18 05:46:55;;;;;;;;;;;;;;;2.69;80.63;92480.53;4971109;28;19984;-77
2023/03/18 05:49:36;;;;;;;;;;;;;;;2.70;80.88;92476.16;4988574;28;19953;-77
2023/03/18 05:52:16;;;;;;;;;;;;;;;2.75;80.73;92473.66;4971158;28;19917;-77
2023/03/18 05:54:44;;;;;;;;;;;;;;;2.79;80.72;92479.13;4968178;28;19929;-77
2023/03/18 05:57:12;;;;;;;;;;;;;;;2.81;80.49;92479.66;4951575;28;20270;-77
2023/03/18 05:59:38;;;;;;;;;;;;;;;2.84;80.51;92464.47;4971389;28;19914;-77
2023/03/18 06:02:04;;;;;;;;;;;;;;;2.89;79.85;92468.94;4968709;28;20411;-77
2023/03/18 06:04:30;;;;;;;;;;;;;;;2.94;80.41;92466.41;4968999;28;20372;-77
2023/03/18 06:06:57;;;;;;;;;;;;;;;3.00;80.63;92470.63;4970180;28;19914;-77
2023/03/18 06:09:22;;;;;;;;;;;;;;;3.05;80.57;92472.50;4970214;28;20049;-77
2023/03/18 06:11:48;;;;;;;;;;;;;;;3.13;79.93;92482.44;4969037;28;20008;-77
2023/03/18 06:14:14;;;;;;;;;;;;;;;3.22;79.09;92487.94;4966265;28;19925;-77
2023/03/18 06:16:40;;;;;;;;;;;;;;;3.28;79.17;92492.94;4982463;28;19918;-77
2023/03/18 06:19:06;;;;;;;;;;;;;;;3.35;78.63;92492.75;4970024;28;19914;-77
2023/03/18 06:21:32;;;;;;;;;;;;;;;3.43;78.48;92487.16;4968462;28;19921;-77
2023/03/18 06:23:57;;;;;;;;;;;;;;;3.55;78.35;92490.38;4970489;28;19984;-77
2023/03/18 06:26:24;;;;;;;;;;;;;;;3.85;77.86;92488.34;4967634;28;19918;-77
2023/03/18 06:28:50;;;;;;;;;;;;;;;4.01;76.62;92494.47;4968220;28;20332;-77
2023/03/18 06:31:16;;;;;;;;;;;;;;;4.03;76.53;92490.63;4964895;28;19918;-77
2023/03/18 06:33:43;;;;;;;;;;;;;;;4.05;76.43;92490.38;4973932;28;20005;-80
2023/03/18 06:36:11;;;;;;;;;;;;;;;4.12;75.92;92501.31;4964659;28;19914;-79
2023/03/18 06:38:43;;;;;;;;;;;;;;;4.33;75.76;92499.69;4975266;28;19918;-80
2023/03/18 06:41:10;;;;;;;;;;;;;;;4.71;75.34;92503.84;4972924;28;19918;-79
2023/03/18 06:43:39;;;;;;;;;;;;;;;4.90;74.92;92500.84;4957695;28;20428;-78
2023/03/18 06:46:05;;;;;;;;;;;;;;;5.22;73.45;92493.78;4954801;29;19957;-79
2023/03/18 06:48:31;;;;;;;;;;;;;;;6.07;70.84;92497.97;4970477;28;20384;-80
2023/03/18 06:50:57;;;;;;;;;;;;;;;7.02;65.78;92494.03;4971258;28;19976;-79
2023/03/18 06:53:29;;;;;;;;;;;;;;;7.85;63.11;92479.69;4982371;28;19918;-79
2023/03/18 06:55:55;;;;;;;;;;;;;;;8.87;59.71;92488.66;4971166;28;19918;-81
2023/03/18 06:58:24;;;;;;;;;;;;;;;9.68;56.37;92484.44;4970817;28;19925;-81
2023/03/18 07:01:01;;;;;;;;;;;;;;;10.25;54.57;92481.06;4957129;28;19969;-81
2023/03/18 07:03:33;;;;;;;;;;;;;;;10.73;52.72;92486.13;4970373;28;20308;-81
2023/03/18 07:05:59;;;;;;;;;;;;;;;11.49;49.46;92489.28;4974051;28;19914;-81
2023/03/18 07:08:25;;;;;;;;;;;;;;;11.90;48.43;92488.50;4957424;28;20376;-81
2023/03/18 07:10:53;;;;;;;;;;;;;;;12.34;46.45;92496.75;4970350;28;19918;-80
2023/03/18 07:13:19;;;;;;;;;;;;;;;12.37;46.04;92489.09;4954175;28;19918;-82
2023/03/18 07:15:45;;;;;;;;;;;;;;;12.60;45.12;92486.47;4970966;28;19944;-81
2023/03/18 07:18:11;;;;;;;;;;;;;;;12.26;46.34;92493.00;4975389;28;19914;-81
2023/03/18 07:20:39;;;;;;;;;;;;;;;12.43;45.55;92495.78;4975331;28;20363;-81
2023/03/18 07:23:04;;;;;;;;;;;;;;;12.92;46.12;92490.69;4973858;28;19921;-81
2023/03/18 07:25:31;;;;;;;;;;;;;;;13.39;44.10;92496.41;4967409;28;19918;-82
2023/03/18 07:27:58;;;;;;;;;;;;;;;13.30;43.74;92492.94;4972211;28;19924;-81
2023/03/18 07:30:25;;;;;;;;;;;;;;;13.56;43.92;92490.44;4973868;28;19918;-82
2023/03/18 07:32:51;;;;;;;;;;;;;;;13.99;41.97;92491.66;4968086;28;19937;-80
2023/03/18 07:35:17;;;;;;;;;;;;;;;13.35;43.47;92499.94;4984891;28;19922;-78
2023/03/18 07:37:43;;;;;;;;;;;;;;;12.43;44.79;92497.63;4967540;28;19919;-78
2023/03/18 07:40:10;;;;;;;;;;;;;;;11.75;46.08;92497.41;4959093;28;19920;-78
2023/03/18 07:42:36;;;;;;;;;;;;;;;11.50;46.94;92498.69;4967374;28;19949;-77
2023/03/18 07:45:02;;;;;;;;;;;;;;;11.18;48.86;92496.91;4964318;28;19918;-78
2023/03/18 07:47:28;;;;;;;;;;;;;;;10.91;49.41;92508.88;4967964;28;19924;-78
2023/03/18 07:49:53;;;;;;;;;;;;;;;10.76;51.60;92512.53;4968981;28;19973;-78
2023/03/18 07:52:19;;;;;;;;;;;;;;;10.96;49.67;92503.53;4968786;28;19937;-77
2023/03/18 07:54:44;;;;;;;;;;;;;;;10.70;49.56;92505.03;4963027;28;19928;-77
2023/03/18 07:57:10;;;;;;;;;;;;;;;10.32;51.62;92511.06;4962929;28;20435;-78
2023/03/18 07:59:39;;;;;;;;;;;;;;;10.03;52.28;92511.16;4951477;28;19954;-77
2023/03/18 08:02:06;;;;;;;;;;;;;;;9.82;54.72;92515.09;4967715;28;19922;-78
2023/03/18 08:04:32;;;;;;;;;;;;;;;9.59;53.95;92510.41;4969526;28;19918;-78
2023/03/18 08:06:57;;;;;;;;;;;;;;;9.63;54.55;92523.66;4973134;28;19918;-78
2023/03/18 08:09:23;;;;;;;;;;;;;;;9.80;53.64;92513.53;4970340;28;20073;-78
2023/03/18 08:11:49;;;;;;;;;;;;;;;9.94;53.22;92518.09;4968950;28;19926;-78
2023/03/18 08:14:14;;;;;;;;;;;;;;;10.25;51.39;92525.56;4973084;28;20407;-78
2023/03/18 08:16:40;;;;;;;;;;;;;;;9.66;52.74;92522.34;4973990;28;19981;-78
2023/03/18 08:19:05;;;;;;;;;;;;;;;9.74;54.75;92527.72;4969087;28;19945;-77
2023/03/18 08:21:31;;;;;;;;;;;;;;;10.11;52.14;92523.63;4970466;28;20021;-77
2023/03/18 08:23:56;;;;;;;;;;;;;;;9.79;52.59;92526.88;4968593;28;19914;-79
2023/03/18 08:26:22;;;;;;;;;;;;;;;9.93;54.25;92533.00;4972724;28;19921;-77
2023/03/18 08:28:47;;;;;;;;;;;;;;;10.04;51.93;92538.09;4968573;28;19922;-78
2023/03/18 08:31:13;;;;;;;;;;;;;;;10.36;51.37;92534.84;4967820;28;19926;-77
2023/03/18 08:33:39;;;;;;;;;;;;;;;10.17;50.37;92530.34;4972477;28;19960;-77
2023/03/18 08:36:04;;;;;;;;;;;;;;;9.72;53.72;92535.06;4974858;28;19914;-77
2023/03/18 08:38:30;;;;;;;;;;;;;;;9.32;53.95;92529.25;4974597;28;20414;-78
2023/03/18 08:40:56;;;;;;;;;;;;;;;9.57;55.44;92530.03;4966543;28;19933;-78
2023/03/18 08:43:22;;;;;;;;;;;;;;;9.68;53.12;92533.28;4971861;28;19997;-78
2023/03/18 08:45:54;;;;;;;;;;;;;;;9.92;53.49;92536.66;4974848;28;19914;-81
2023/03/18 08:48:20;;;;;;;;;;;;;;;10.48;53.69;92524.72;4967028;28;19924;-78
2023/03/18 08:50:46;;;;;;;;;;;;;;;10.55;51.06;92532.97;4974196;28;19914;-77
2023/03/18 08:53:12;;;;;;;;;;;;;;;10.96;51.35;92528.97;4974053;28;20101;-79
2023/03/18 08:55:39;;;;;;;;;;;;;;;11.03;51.42;92535.41;4971493;28;19950;-79
2023/03/18 08:58:05;;;;;;;;;;;;;;;10.94;50.89;92528.47;4965780;28;19929;-80
2023/03/18 09:00:32;;;;;;;;;;;;;;;10.92;50.85;92535.84;4962873;28;20486;-80
2023/03/18 09:02:57;;;;;;;;;;;;;;;10.78;51.32;92535.78;4975981;28;19922;-81
2023/03/18 09:05:23;;;;;;;;;;;;;;;10.51;51.88;92537.22;4976199;28;19914;-78
2023/03/18 09:07:49;;;;;;;;;;;;;;;10.36;52.34;92545.31;4976223;28;19924;-79
2023/03/18 09:10:17;;;;;;;;;;;;;;;10.34;52.24;92547.44;4974321;28;19917;-78
2023/03/18 09:12:43;;;;;;;;;;;;;;;10.46;51.34;92550.41;4973353;28;19918;-78
2023/03/18 09:15:10;;;;;;;;;;;;;;;10.81;51.92;92540.47;4969125;28;19965;-78
2023/03/18 09:17:39;;;;;;;;;;;;;;;11.17;50.25;92537.28;4987576;28;19917;-78
2023/03/18 09:20:05;;;;;;;;;;;;;;;11.40;50.63;92541.59;4971638;28;20887;-78
2023/03/18 09:22:32;;;;;;;;;;;;;;;11.59;49.56;92532.88;4971165;28;19918;-77
2023/03/18 09:24:59;;;;;;;;;;;;;;;11.72;48.11;92532.09;4973607;28;19922;-79
2023/03/18 09:27:25;;;;;;;;;;;;;;;11.11;49.61;92530.56;4974117;28;19918;-78
2023/03/18 09:29:51;;;;;;;;;;;;;;;10.96;50.89;92532.34;4966748;28;19918;-78
2023/03/18 09:32:17;;;;;;;;;;;;;;;10.91;51.96;92535.06;4970123;28;20105;-78
2023/03/18 09:34:43;;;;;;;;;;;;;;;10.51;51.44;92537.22;4969643;28;19969;-78
2023/03/18 09:37:09;;;;;;;;;;;;;;;10.70;51.13;92533.84;4969520;28;19972;-78
2023/03/18 09:39:36;;;;;;;;;;;;;;;10.89;50.46;92537.19;4966906;28;20315;-78
2023/03/18 09:42:04;;;;;;;;;;;;;;;11.07;50.07;92540.06;4965950;28;20203;-78
2023/03/18 09:44:32;;;;;;;;;;;;;;;10.83;49.53;92541.75;4970475;28;19914;-77
2023/03/18 09:47:09;;;;;;;;;;;;;;;10.55;48.55;92535.59;4966714;28;19924;-78
2023/03/18 09:49:41;;;;;;;;;;;;;;;10.78;49.06;92530.56;4967654;28;19932;-78
2023/03/18 09:52:12;;;;;;;;;;;;;;;10.92;49.53;92525.34;4968304;28;19940;-78
2023/03/18 09:54:40;;;;;;;;;;;;;;;10.87;51.15;92533.31;4972214;28;19922;-78
2023/03/18 09:57:12;;;;;;;;;;;;;;;10.76;49.52;92528.25;4974577;28;19957;-78
2023/03/18 09:59:42;;;;;;;;;;;;;;;10.66;50.16;92532.84;4968559;28;19918;-79
2023/03/18 10:02:21;;;;;;;;;;;;;;;10.22;51.09;92545.19;4970614;28;20791;-78
2023/03/18 10:04:51;;;;;;;;;;;;;;;10.51;50.55;92539.84;4971832;28;20021;-77
2023/03/18 10:07:18;;;;;;;;;;;;;;;10.51;50.40;92539.06;4973904;28;19914;-78
2023/03/18 10:09:51;;;;;;;;;;;;;;;10.69;49.79;92546.13;4967747;28;19914;-79
2023/03/18 10:12:36;;;;;;;;;;;;;;;10.92;49.63;92544.50;4973947;28;19924;-78
2023/03/18 10:15:10;;;;;;;;;;;;;;;10.85;48.35;92536.19;4970604;28;19914;-78
2023/03/18 10:17:41;;;;;;;;;;;;;;;11.26;49.05;92543.41;4972323;28;19938;-79
2023/03/18 10:20:17;;;;;;;;;;;;;;;11.30;48.24;92549.59;4967689;28;19929;-79
2023/03/18 10:22:48;;;;;;;;;;;;;;;11.39;47.17;92544.47;4973043;28;20364;-78
2023/03/18 10:25:35;;;;;;;;;;;;;;;11.10;49.04;92549.94;4967630;28;19914;-79
2023/03/18 10:28:07;;;;;;;;;;;;;;;11.06;48.58;92544.53;4949458;28;19918;-78
2023/03/18 10:30:56;;;;;;;;;;;;;;;11.09;49.66;92548.41;4972684;28;20224;-79
2023/03/18 10:33:21;;;;;;;;;;;;;;;11.62;48.22;92553.28;4968683;28;19914;-79
2023/03/18 10:35:51;;;;;;;;;;;;;;;12.01;45.83;92552.03;4972038;28;19920;-79
2023/03/18 10:38:26;;;;;;;;;;;;;;;11.77;46.17;92560.06;4972890;28;19945;-79
2023/03/18 10:40:52;;;;;;;;;;;;;;;11.86;46.69;92561.72;4960447;28;20436;-77
2023/03/18 10:43:19;;;;;;;;;;;;;;;12.08;46.02;92552.41;4970989;28;19990;-79
2023/03/18 10:45:47;;;;;;;;;;;;;;;12.16;45.78;92553.56;4970408;28;19914;-79
2023/03/18 10:48:31;;;;;;;;;;;;;;;12.00;46.58;92553.88;4972960;28;19924;-78
2023/03/18 10:50:59;;;;;;;;;;;;;;;11.85;46.38;92548.91;4957276;28;19997;-80
2023/03/18 10:53:44;;;;;;;;;;;;;;;11.63;46.74;92549.56;4970758;28;19914;-79
2023/03/18 10:56:11;;;;;;;;;;;;;;;11.78;45.26;92551.91;4971781;28;19918;-79
2023/03/18 10:58:37;;;;;;;;;;;;;;;11.61;48.11;92549.84;4972474;28;20787;-78
2023/03/18 11:01:06;;;;;;;;;;;;;;;11.70;47.75;92549.97;4974338;28;19924;-78
2023/03/18 11:03:34;;;;;;;;;;;;;;;11.62;46.60;92548.81;4970340;28;19922;-79
2023/03/18 11:06:00;;;;;;;;;;;;;;;11.79;46.96;92544.81;4972579;28;19914;-80
2023/03/18 11:08:36;;;;;;;;;;;;;;;11.92;46.21;92536.19;4972379;28;20235;-81
2023/03/18 11:11:31;;;;;;;;;;;;;;;12.01;47.56;92531.03;4971911;28;19982;-77
2023/03/18 11:13:58;;;;;;;;;;;;;;;11.60;45.67;92544.91;4991892;28;19975;-79
2023/03/18 11:16:33;;;;;;;;;;;;;;;11.82;45.40;92537.16;4956519;28;19929;-78
2023/03/18 11:19:05;;;;;;;;;;;;;;;12.02;44.70;92541.25;4968005;28;20566;-79
2023/03/18 11:21:32;;;;;;;;;;;;;;;11.90;46.95;92532.31;4965481;28;19940;-78
2023/03/18 11:24:09;;;;;;;;;;;;;;;11.75;45.43;92531.50;4973029;28;20384;-78
2023/03/18 11:26:51;;;;;;;;;;;;;;;12.04;46.88;92527.81;4967581;28;20047;-78
2023/03/18 11:29:22;;;;;;;;;;;;;;;12.21;45.25;92527.22;4975530;28;19924;-78
2023/03/18 11:31:56;;;;;;;;;;;;;;;12.02;45.20;92517.66;4972489;28;19968;-79
2023/03/18 11:34:27;;;;;;;;;;;;;;;12.38;46.75;92522.13;4975225;28;20328;-78
2023/03/18 11:36:59;;;;;;;;;;;;;;;12.17;44.67;92513.91;4979197;28;19913;-80
2023/03/18 11:39:27;;;;;;;;;;;;;;;11.99;45.18;92515.59;4971908;28;19973;-79
2023/03/18 11:41:53;;;;;;;;;;;;;;;11.90;45.67;92511.34;4975679;28;19918;-82
2023/03/18 11:44:24;;;;;;;;;;;;;;;11.76;44.42;92519.97;4973829;28;19928;-79
2023/03/18 11:46:57;;;;;;;;;;;;;;;12.05;45.63;92521.53;4965960;28;19943;-78
2023/03/18 11:49:24;;;;;;;;;;;;;;;12.27;45.04;92513.72;4972121;28;19921;-80
2023/03/18 11:51:56;;;;;;;;;;;;;;;12.03;44.08;92494.81;4970626;28;19945;-79
2023/03/18 11:54:25;;;;;;;;;;;;;;;12.24;44.87;92498.53;4972539;28;19918;-80
2023/03/18 11:56:56;;;;;;;;;;;;;;;12.14;44.23;92495.38;4971084;28;20352;-80
2023/03/18 11:59:31;;;;;;;;;;;;;;;12.26;46.31;92501.66;4969595;28;19915;-79
2023/03/18 12:02:17;;;;;;;;;;;;;;;12.55;45.15;92490.00;4971422;28;20000;-78
2023/03/18 12:04:43;;;;;;;;;;;;;;;12.18;45.94;92496.31;4973234;28;19914;-78
2023/03/18 12:07:12;;;;;;;;;;;;;;;12.14;45.40;92492.75;4968298;28;19919;-77
2023/03/18 12:09:41;;;;;;;;;;;;;;;12.08;45.08;92492.06;4965331;28;20316;-78
2023/03/18 12:12:18;;;;;;;;;;;;;;;12.10;45.18;92489.94;4973660;28;20351;-77
2023/03/18 12:14:54;;;;;;;;;;;;;;;12.34;44.79;92499.38;4972293;28;19989;-78
2023/03/18 12:17:34;;;;;;;;;;;;;;;12.24;44.03;92495.13;4970464;28;20288;-80
2023/03/18 12:20:18;;;;;;;;;;;;;;;12.27;43.53;92495.34;4971936;28;19958;-79
2023/03/18 12:23:03;;;;;;;;;;;;;;;12.23;43.57;92496.22;4972124;28;19924;-79
2023/03/18 12:25:40;;;;;;;;;;;;;;;12.82;44.77;92488.34;4965814;28;19917;-79
2023/03/18 12:28:18;;;;;;;;;;;;;;;12.55;43.84;92479.50;4966265;28;19918;-79
2023/03/18 12:30:50;;;;;;;;;;;;;;;12.69;43.56;92482.81;4967119;28;19922;-79
2023/03/18 12:33:30;;;;;;;;;;;;;;;12.67;43.34;92482.34;4970412;28;19964;-79
2023/03/18 12:35:59;;;;;;;;;;;;;;;12.62;44.21;92489.59;4967464;28;19914;-80
2023/03/18 12:38:33;;;;;;;;;;;;;;;12.70;43.42;92487.03;4971921;28;19914;-80
2023/03/18 12:40:59;;;;;;;;;;;;;;;13.06;45.26;92483.53;4968839;28;20320;-81
2023/03/18 12:43:43;;;;;;;;;;;;;;;12.88;43.47;92481.88;4972314;28;19914;-80
2023/03/18 12:46:20;;;;;;;;;;;;;;;12.86;43.52;92471.66;4969133;28;19922;-80
2023/03/18 12:48:50;;;;;;;;;;;;;;;12.53;43.64;92473.75;4971786;28;19918;-80
2023/03/18 12:51:20;;;;;;;;;;;;;;;12.73;43.73;92480.41;4973325;28;20309;-80
2023/03/18 12:53:52;;;;;;;;;;;;;;;12.65;43.33;92483.72;4972695;28;19921;-80
2023/03/18 12:56:20;;;;;;;;;;;;;;;12.62;43.72;92477.22;4971079;28;19926;-80
2023/03/18 12:58:49;;;;;;;;;;;;;;;12.65;44.41;92478.47;4970732;28;19960;-80
2023/03/18 13:01:17;;;;;;;;;;;;;;;12.54;44.19;92475.31;4966456;28;19918;-80